Time;durP1;ratioP1;P1;durP2;ratioP2;P2;SDS_P1;SDS_P2;PMS_P1;PMS_P2;Temp;Humidity;BMP_temperature;BMP_pressure;BME280_temperature;BME280_humidity;BME280_pressure;Samples;Min_cycle;Max_cycle;Signal;HPM_P1;HPM_P2
2023/03/21 00:00:23;;;;;;;19.85;11.40;;;8.80;99.90;;;;;;5095745;28;20043;-82
2023/03/21 00:02:48;;;;;;;21.40;11.15;;;8.80;99.90;;;;;;5115439;28;20039;-81
2023/03/21 00:05:14;;;;;;;20.02;11.20;;;8.80;99.90;;;;;;5113007;28;20044;-81
2023/03/21 00:07:39;;;;;;;21.77;11.30;;;8.80;99.90;;;;;;5115725;27;20043;-82
2023/03/21 00:10:05;;;;;;;19.88;10.70;;;8.80;99.90;;;;;;5124946;27;20031;-82
2023/03/21 00:12:36;;;;;;;20.65;10.95;;;8.80;99.90;;;;;;5115808;27;20083;-82
2023/03/21 00:15:06;;;;;;;19.23;10.65;;;8.80;99.90;;;;;;5099914;28;20485;-82
2023/03/21 00:17:32;;;;;;;20.50;10.98;;;8.80;99.90;;;;;;5118889;27;20040;-82
2023/03/21 00:20:04;;;;;;;21.65;11.30;;;8.80;99.90;;;;;;5115015;27;20122;-82
2023/03/21 00:22:30;;;;;;;21.80;10.90;;;8.80;99.90;;;;;;5111810;27;20040;-82
2023/03/21 00:24:56;;;;;;;22.13;11.57;;;8.80;99.90;;;;;;5113149;27;20043;-82
2023/03/21 00:27:22;;;;;;;25.33;11.43;;;8.80;99.90;;;;;;5114503;27;20073;-81
2023/03/21 00:29:48;;;;;;;23.00;11.73;;;8.80;99.90;;;;;;5102680;27;20047;-82
2023/03/21 00:32:15;;;;;;;28.75;13.13;;;8.80;99.90;;;;;;5117502;27;20624;-82
2023/03/21 00:34:41;;;;;;;32.05;13.32;;;8.80;99.90;;;;;;5112573;28;20035;-81
2023/03/21 00:37:08;;;;;;;38.97;13.32;;;8.80;99.90;;;;;;5110057;27;20032;-82
2023/03/21 00:39:34;;;;;;;39.35;15.10;;;8.80;99.90;;;;;;5113506;27;20064;-81
2023/03/21 00:42:00;;;;;;;53.75;16.33;;;8.80;99.90;;;;;;5142924;27;20047;-82
2023/03/21 00:44:26;;;;;;;57.88;16.35;;;8.80;99.90;;;;;;5117772;27;20039;-82
2023/03/21 00:46:52;;;;;;;59.33;17.17;;;8.80;99.90;;;;;;5112971;28;20092;-82
2023/03/21 00:49:19;;;;;;;64.82;16.88;;;8.80;99.90;;;;;;5099523;27;20509;-82
2023/03/21 00:51:45;;;;;;;60.13;17.10;;;8.80;99.90;;;;;;5092494;28;20086;-82
2023/03/21 00:54:12;;;;;;;58.05;17.60;;;8.80;99.90;;;;;;5094624;27;20031;-82
2023/03/21 00:56:37;;;;;;;98.55;19.00;;;8.80;99.90;;;;;;5114212;27;20124;-81
2023/03/21 00:59:03;;;;;;;62.58;18.92;;;8.80;99.90;;;;;;5119824;27;20035;-81
2023/03/21 01:01:30;;;;;;;91.03;20.83;;;8.80;99.90;;;;;;5113510;27;20051;-81
2023/03/21 01:04:06;;;;;;;90.97;20.48;;;8.80;99.90;;;;;;5108744;27;20094;-82
2023/03/21 01:06:38;;;;;;;73.88;19.15;;;8.80;99.90;;;;;;5113638;28;20050;-83
2023/03/21 01:09:04;;;;;;;74.40;19.85;;;8.80;99.90;;;;;;5108512;27;20039;-82
2023/03/21 01:11:30;;;;;;;97.70;20.88;;;8.80;99.90;;;;;;5107983;28;20071;-82
2023/03/21 01:13:56;;;;;;;63.28;19.38;;;8.80;99.90;;;;;;5097545;28;20027;-81
2023/03/21 01:16:23;;;;;;;56.40;18.15;;;8.80;99.90;;;;;;5109733;27;20514;-82
2023/03/21 01:18:48;;;;;;;60.85;18.00;;;8.80;99.90;;;;;;5106151;27;20084;-82
2023/03/21 01:21:14;;;;;;;88.35;18.70;;;8.80;99.90;;;;;;5120593;27;20031;-82
2023/03/21 01:23:42;;;;;;;59.72;18.98;;;8.80;99.90;;;;;;5114832;27;20063;-82
2023/03/21 01:26:09;;;;;;;52.65;16.90;;;8.80;99.90;;;;;;5116802;27;20031;-81
2023/03/21 01:28:38;;;;;;;44.90;15.52;;;8.80;99.90;;;;;;5098530;27;20040;-81
2023/03/21 01:31:04;;;;;;;49.05;15.70;;;8.80;99.90;;;;;;5104878;27;20035;-81
2023/03/21 01:33:31;;;;;;;45.20;15.80;;;8.80;99.90;;;;;;5120981;27;20046;-81
2023/03/21 01:35:58;;;;;;;39.75;14.10;;;8.80;99.90;;;;;;5098427;28;20051;-81
2023/03/21 01:38:24;;;;;;;40.60;14.63;;;8.80;99.90;;;;;;5103722;28;20576;-82
2023/03/21 01:40:50;;;;;;;44.80;14.35;;;8.80;99.90;;;;;;5114213;27;20519;-82
2023/03/21 01:43:23;;;;;;;43.45;15.55;;;8.80;99.90;;;;;;5108185;28;20039;-81
2023/03/21 01:46:40;;;;;;;43.67;14.18;;;8.80;99.90;;;;;;5094755;28;20075;-82
2023/03/21 01:49:33;;;;;;;40.65;14.55;;;8.80;99.90;;;;;;5066349;27;20142;-81
2023/03/21 01:52:06;;;;;;;42.13;14.70;;;8.80;99.90;;;;;;5105889;28;20121;-81
2023/03/21 01:54:36;;;;;;;46.73;16.03;;;8.80;99.90;;;;;;5116630;27;20510;-81
2023/03/21 01:57:05;;;;;;;46.50;15.25;;;8.80;99.90;;;;;;5100391;28;20032;-81
2023/03/21 01:59:34;;;;;;;35.80;14.38;;;8.90;99.90;;;;;;5098279;27;20043;-81
2023/03/21 02:02:06;;;;;;;47.78;16.63;;;8.80;99.90;;;;;;5118915;27;20112;-82
2023/03/21 02:04:34;;;;;;;41.00;15.32;;;8.80;99.90;;;;;;5108084;27;20031;-81
2023/03/21 02:07:10;;;;;;;39.92;15.82;;;8.80;99.90;;;;;;5112620;27;20028;-83
2023/03/21 02:09:39;;;;;;;41.67;17.25;;;8.90;99.90;;;;;;5113778;28;20153;-81
2023/03/21 02:12:07;;;;;;;40.72;16.35;;;8.80;99.90;;;;;;5111328;28;20484;-81
2023/03/21 02:14:34;;;;;;;39.47;16.08;;;8.90;99.90;;;;;;5120107;27;20058;-81
2023/03/21 02:17:11;;;;;;;40.15;16.25;;;8.90;99.90;;;;;;5094419;28;20077;-81
2023/03/21 02:20:07;;;;;;;40.78;16.77;;;8.90;99.90;;;;;;5102132;27;20054;-81
2023/03/21 02:22:43;;;;;;;41.55;16.20;;;8.90;99.90;;;;;;5114494;28;20040;-82
2023/03/21 02:25:17;;;;;;;38.80;16.40;;;8.90;99.90;;;;;;5097139;28;20063;-81
2023/03/21 02:28:30;;;;;;;35.15;16.58;;;8.90;99.90;;;;;;5111276;28;20039;-81
2023/03/21 02:31:21;;;;;;;41.60;17.08;;;8.90;99.90;;;;;;5017126;28;20560;-81
2023/03/21 02:34:08;;;;;;;38.03;16.77;;;8.90;99.90;;;;;;5105151;28;20490;-80
2023/03/21 02:36:43;;;;;;;34.47;15.68;;;8.90;99.90;;;;;;5093951;28;20055;-81
2023/03/21 02:39:24;;;;;;;32.20;15.68;;;8.90;99.90;;;;;;5111178;28;20074;-81
2023/03/21 02:42:01;;;;;;;35.40;16.55;;;8.90;99.90;;;;;;5106880;28;20118;-81
2023/03/21 02:44:34;;;;;;;36.03;16.25;;;8.90;99.90;;;;;;5098472;28;20042;-81
2023/03/21 02:47:10;;;;;;;34.53;16.65;;;8.90;99.90;;;;;;5095411;28;20039;-81
2023/03/21 02:49:56;;;;;;;31.40;16.13;;;8.90;99.90;;;;;;5119995;28;20031;-82
2023/03/21 02:52:25;;;;;;;31.85;16.10;;;8.90;99.90;;;;;;5099684;28;20035;-80
2023/03/21 02:54:52;;;;;;;30.23;15.75;;;9.00;99.90;;;;;;5145897;27;20034;-81
2023/03/21 02:57:19;;;;;;;29.92;16.02;;;8.90;99.90;;;;;;5097522;28;20028;-81
2023/03/21 02:59:49;;;;;;;30.13;15.65;;;8.90;99.90;;;;;;5113698;28;20035;-81
2023/03/21 03:02:16;;;;;;;27.85;15.68;;;8.90;99.90;;;;;;5101322;28;20040;-81
2023/03/21 03:04:42;;;;;;;28.88;15.60;;;8.90;99.90;;;;;;5113374;28;20039;-81
2023/03/21 03:07:23;;;;;;;28.13;16.55;;;8.90;99.90;;;;;;5098970;28;20036;-81
2023/03/21 03:10:13;;;;;;;30.73;16.10;;;9.00;99.90;;;;;;5112639;28;20058;-81
2023/03/21 03:12:56;;;;;;;27.17;14.95;;;9.00;99.90;;;;;;5100174;28;20036;-81
2023/03/21 03:15:44;;;;;;;27.23;15.52;;;9.00;99.90;;;;;;5114104;28;20036;-81
2023/03/21 03:18:34;;;;;;;28.67;16.10;;;9.00;99.90;;;;;;5113247;28;20109;-81
2023/03/21 03:21:34;;;;;;;25.58;15.40;;;9.00;99.90;;;;;;5113619;28;20032;-81
2023/03/21 03:24:27;;;;;;;26.80;14.73;;;9.00;99.90;;;;;;5083570;28;20406;-81
2023/03/21 03:26:54;;;;;;;26.10;14.77;;;9.00;99.90;;;;;;5096497;28;20050;-82
2023/03/21 03:29:21;;;;;;;30.05;16.27;;;9.00;99.90;;;;;;5113522;28;20043;-81
2023/03/21 03:32:06;;;;;;;29.10;15.82;;;9.00;99.90;;;;;;5117621;28;20032;-81
2023/03/21 03:34:41;;;;;;;25.42;14.80;;;9.00;99.90;;;;;;5105728;28;20043;-81
2023/03/21 03:37:10;;;;;;;25.92;14.73;;;8.90;99.90;;;;;;5115707;28;20036;-81
2023/03/21 03:39:58;;;;;;;26.50;14.73;;;9.00;99.90;;;;;;5113823;28;20072;-81
2023/03/21 03:42:30;;;;;;;26.33;14.40;;;9.00;99.90;;;;;;5096107;28;20104;-81
2023/03/21 03:44:56;;;;;;;27.52;15.45;;;9.00;99.90;;;;;;5122745;28;20043;-81
2023/03/21 03:47:43;;;;;;;28.52;15.18;;;9.00;99.90;;;;;;5101364;28;20044;-81
2023/03/21 03:50:28;;;;;;;29.00;14.52;;;9.00;99.90;;;;;;5123199;28;20038;-81
2023/03/21 03:53:05;;;;;;;29.00;14.93;;;9.00;99.90;;;;;;5129224;27;20547;-81
2023/03/21 03:55:33;;;;;;;28.13;14.82;;;9.00;99.90;;;;;;5132367;27;20043;-81
2023/03/21 03:58:00;;;;;;;26.98;13.95;;;9.00;99.90;;;;;;5109497;28;20454;-81
2023/03/21 04:00:26;;;;;;;27.88;14.20;;;9.00;99.90;;;;;;5120441;27;20058;-82
2023/03/21 04:02:53;;;;;;;27.55;14.30;;;9.00;99.90;;;;;;5099747;28;20040;-81
2023/03/21 04:05:20;;;;;;;29.90;14.07;;;9.00;99.90;;;;;;5133708;27;20056;-82
2023/03/21 04:07:49;;;;;;;25.38;12.68;;;9.00;99.90;;;;;;5157600;27;20040;-82
2023/03/21 04:10:15;;;;;;;28.23;14.00;;;9.00;99.90;;;;;;5104601;28;20040;-81
2023/03/21 04:12:41;;;;;;;26.13;12.63;;;9.00;99.90;;;;;;5125966;28;20032;-82
2023/03/21 04:15:07;;;;;;;25.40;12.30;;;9.00;99.90;;;;;;5113704;28;20479;-81
2023/03/21 04:17:33;;;;;;;26.35;11.80;;;9.00;99.90;;;;;;5121261;28;20059;-81
2023/03/21 04:19:58;;;;;;;23.70;12.30;;;9.00;99.90;;;;;;5110187;28;20043;-81
2023/03/21 04:22:25;;;;;;;27.83;12.27;;;9.00;99.90;;;;;;5128270;28;20043;-81
2023/03/21 04:24:52;;;;;;;24.55;11.75;;;9.00;99.90;;;;;;5123617;28;20039;-81
2023/03/21 04:27:17;;;;;;;25.13;12.35;;;9.00;99.90;;;;;;5100810;28;20032;-81
2023/03/21 04:29:43;;;;;;;21.65;10.88;;;9.00;99.90;;;;;;5121675;28;20102;-81
2023/03/21 04:32:15;;;;;;;24.15;11.50;;;9.00;99.90;;;;;;5111390;28;20028;-81
2023/03/21 04:34:42;;;;;;;24.15;10.85;;;9.00;99.90;;;;;;5109632;28;20091;-81
2023/03/21 04:37:10;;;;;;;22.50;11.55;;;9.00;99.90;;;;;;5125082;28;20031;-81
2023/03/21 04:39:37;;;;;;;21.75;10.52;;;9.00;99.90;;;;;;5144807;27;20506;-82
2023/03/21 04:42:03;;;;;;;23.20;10.90;;;9.00;99.90;;;;;;5122805;28;20039;-82
2023/03/21 04:44:29;;;;;;;22.42;10.82;;;8.90;99.90;;;;;;5120088;28;20047;-81
2023/03/21 04:46:55;;;;;;;23.02;11.40;;;8.90;99.90;;;;;;5109257;28;20031;-81
2023/03/21 04:49:21;;;;;;;26.25;11.63;;;9.00;99.90;;;;;;5112486;28;20128;-81
2023/03/21 04:51:46;;;;;;;22.08;11.35;;;9.00;99.90;;;;;;5124452;28;20062;-82
2023/03/21 04:54:12;;;;;;;23.17;12.20;;;9.00;99.90;;;;;;5123744;28;20028;-81
2023/03/21 04:56:38;;;;;;;22.13;11.43;;;9.00;99.90;;;;;;5124453;28;20095;-81
2023/03/21 04:59:13;;;;;;;22.80;11.52;;;9.00;99.90;;;;;;5154189;27;20044;-81
2023/03/21 05:01:39;;;;;;;22.25;11.65;;;9.00;99.90;;;;;;5108709;28;20040;-81
2023/03/21 05:04:05;;;;;;;28.13;12.38;;;9.00;99.90;;;;;;5116497;28;20074;-81
2023/03/21 05:06:32;;;;;;;24.85;12.13;;;9.00;99.90;;;;;;5145784;27;20032;-80
2023/03/21 05:08:59;;;;;;;26.35;12.65;;;9.00;99.90;;;;;;5114464;28;20028;-81
2023/03/21 05:11:31;;;;;;;27.10;12.00;;;9.00;99.90;;;;;;5121776;27;20044;-82
2023/03/21 05:13:58;;;;;;;27.70;12.85;;;8.90;99.90;;;;;;5125912;27;20039;-82
2023/03/21 05:16:25;;;;;;;28.92;11.98;;;9.00;99.90;;;;;;5127177;27;20046;-82
2023/03/21 05:18:54;;;;;;;26.17;14.13;;;8.90;99.90;;;;;;5103106;28;20051;-82
2023/03/21 05:21:23;;;;;;;28.52;13.52;;;9.00;99.90;;;;;;5114569;28;20042;-82
2023/03/21 05:23:53;;;;;;;30.42;13.10;;;8.90;99.90;;;;;;5120439;27;20028;-82
2023/03/21 05:26:21;;;;;;;27.70;13.02;;;8.90;99.90;;;;;;5115848;28;20085;-82
2023/03/21 05:28:47;;;;;;;27.08;13.52;;;9.00;99.90;;;;;;5146175;27;20060;-82
2023/03/21 05:31:17;;;;;;;28.75;13.18;;;8.90;99.90;;;;;;5131707;27;20073;-81
2023/03/21 05:33:43;;;;;;;24.77;12.55;;;9.00;99.90;;;;;;5111696;28;20031;-82
2023/03/21 05:36:10;;;;;;;25.42;12.48;;;9.00;99.90;;;;;;5117027;28;20043;-82
2023/03/21 05:38:35;;;;;;;27.92;13.52;;;9.00;99.90;;;;;;5110224;28;20032;-82
2023/03/21 05:41:01;;;;;;;22.98;11.63;;;8.90;99.90;;;;;;5096394;28;20516;-81
2023/03/21 05:43:27;;;;;;;23.92;11.93;;;9.00;99.90;;;;;;5109269;28;20068;-82
2023/03/21 05:45:52;;;;;;;22.02;11.48;;;8.90;99.90;;;;;;5112146;28;20560;-82
2023/03/21 05:48:18;;;;;;;22.63;11.50;;;9.00;99.90;;;;;;5142952;27;20036;-81
2023/03/21 05:50:44;;;;;;;22.67;11.30;;;9.00;99.90;;;;;;5114603;28;20040;-81
2023/03/21 05:53:10;;;;;;;20.98;10.93;;;9.00;99.90;;;;;;5107147;28;20043;-81
2023/03/21 05:55:36;;;;;;;19.13;10.77;;;9.00;99.90;;;;;;5113484;28;20039;-81
2023/03/21 05:58:02;;;;;;;21.92;10.52;;;9.00;99.90;;;;;;5111217;27;20038;-81
2023/03/21 06:00:28;;;;;;;20.67;9.82;;;9.00;99.90;;;;;;5105551;28;20166;-82
2023/03/21 06:02:54;;;;;;;20.25;10.50;;;9.00;99.90;;;;;;5108714;28;20036;-82
2023/03/21 06:05:19;;;;;;;17.92;9.80;;;9.00;99.90;;;;;;5106764;28;20045;-81
2023/03/21 06:07:45;;;;;;;17.95;9.48;;;9.00;99.90;;;;;;5116524;27;20067;-81
2023/03/21 06:10:11;;;;;;;20.17;10.82;;;9.00;99.90;;;;;;5102192;28;20051;-81
2023/03/21 06:12:37;;;;;;;18.75;9.90;;;9.00;99.90;;;;;;5106323;28;20071;-81
2023/03/21 06:15:07;;;;;;;20.05;10.55;;;9.00;99.90;;;;;;5102917;28;20036;-82
2023/03/21 06:17:33;;;;;;;17.33;9.77;;;9.00;99.90;;;;;;5107803;28;20067;-82
2023/03/21 06:20:03;;;;;;;20.35;10.65;;;9.00;99.90;;;;;;5112204;28;20074;-82
2023/03/21 06:22:29;;;;;;;18.30;10.23;;;9.10;99.90;;;;;;5112517;27;20379;-82
2023/03/21 06:24:55;;;;;;;20.45;10.60;;;9.00;99.90;;;;;;5094411;28;20083;-82
2023/03/21 06:27:20;;;;;;;20.02;10.82;;;9.00;99.90;;;;;;5111458;28;20071;-82
2023/03/21 06:29:46;;;;;;;19.15;10.70;;;9.00;99.90;;;;;;5120896;27;20591;-81
2023/03/21 06:32:12;;;;;;;20.15;10.50;;;9.10;99.90;;;;;;5117285;27;20118;-82
2023/03/21 06:34:37;;;;;;;20.15;11.85;;;9.10;99.90;;;;;;5105581;28;20127;-82
2023/03/21 06:37:03;;;;;;;22.80;11.43;;;9.10;99.90;;;;;;5103111;27;20038;-82
2023/03/21 06:39:30;;;;;;;19.40;11.38;;;9.10;99.90;;;;;;5118862;27;20039;-82
2023/03/21 06:41:56;;;;;;;21.60;10.85;;;9.10;99.90;;;;;;5097186;28;20063;-82
2023/03/21 06:44:23;;;;;;;20.83;12.23;;;9.10;99.90;;;;;;5104988;28;20047;-82
2023/03/21 06:46:49;;;;;;;19.67;11.43;;;9.10;99.90;;;;;;5093220;28;20036;-81
2023/03/21 06:49:15;;;;;;;21.25;12.00;;;9.20;99.90;;;;;;5097170;28;20047;-81
2023/03/21 06:51:41;;;;;;;22.70;11.40;;;9.20;99.90;;;;;;5112372;28;20120;-81
2023/03/21 06:54:06;;;;;;;20.20;12.32;;;9.20;99.90;;;;;;5110865;28;20028;-82
2023/03/21 06:56:32;;;;;;;24.38;12.57;;;9.20;99.90;;;;;;5110668;28;20040;-82
2023/03/21 06:58:57;;;;;;;20.33;11.70;;;9.20;99.90;;;;;;5111384;28;20085;-81
2023/03/21 07:01:26;;;;;;;22.33;11.90;;;9.20;99.90;;;;;;5133920;27;20036;-82
2023/03/21 07:03:56;;;;;;;22.70;12.38;;;9.20;99.90;;;;;;5107077;28;20046;-82
2023/03/21 07:06:25;;;;;;;19.55;11.50;;;9.30;99.90;;;;;;5106846;28;20047;-82
2023/03/21 07:08:51;;;;;;;23.95;12.55;;;9.30;99.90;;;;;;5110535;28;20501;-82
2023/03/21 07:11:17;;;;;;;21.48;12.63;;;9.30;99.90;;;;;;5092152;28;20120;-82
2023/03/21 07:13:43;;;;;;;20.58;12.35;;;9.30;99.90;;;;;;5075897;28;20466;-82
2023/03/21 07:16:09;;;;;;;21.10;12.05;;;9.30;99.90;;;;;;5091654;28;20032;-82
2023/03/21 07:18:35;;;;;;;22.92;12.82;;;9.30;99.90;;;;;;5128944;27;20074;-81
2023/03/21 07:21:01;;;;;;;19.27;11.80;;;9.30;99.90;;;;;;5097303;28;20044;-82
2023/03/21 07:23:27;;;;;;;18.95;11.40;;;9.30;99.90;;;;;;5096237;28;20093;-81
2023/03/21 07:25:53;;;;;;;18.45;11.77;;;9.30;99.90;;;;;;5095929;28;20036;-82
2023/03/21 07:28:19;;;;;;;19.13;10.65;;;9.30;99.90;;;;;;5131138;27;20392;-83
2023/03/21 07:30:50;;;;;;;18.05;10.30;;;9.40;99.90;;;;;;5112813;28;20072;-82
2023/03/21 07:33:16;;;;;;;16.48;10.55;;;9.40;99.90;;;;;;5095664;28;20119;-82
2023/03/21 07:35:41;;;;;;;15.70;10.23;;;9.40;99.90;;;;;;5130334;27;20482;-82
2023/03/21 07:38:07;;;;;;;14.20;8.35;;;9.40;99.90;;;;;;5095177;28;20495;-82
2023/03/21 07:40:32;;;;;;;12.75;8.43;;;9.40;99.90;;;;;;5094883;28;20037;-82
2023/03/21 07:42:58;;;;;;;13.93;8.98;;;9.40;99.90;;;;;;5095093;28;20036;-82
2023/03/21 07:45:25;;;;;;;14.02;8.73;;;9.40;99.90;;;;;;5095466;28;20044;-82
2023/03/21 07:47:51;;;;;;;13.48;8.80;;;9.50;99.90;;;;;;5094385;28;20115;-82
2023/03/21 07:50:17;;;;;;;15.23;8.98;;;9.40;99.90;;;;;;5078367;28;20609;-82
2023/03/21 07:52:43;;;;;;;12.20;8.60;;;9.50;99.90;;;;;;5100463;28;20031;-82
2023/03/21 07:55:09;;;;;;;13.07;8.07;;;9.50;99.90;;;;;;5116249;27;20027;-82
2023/03/21 07:57:35;;;;;;;12.63;8.80;;;9.50;99.90;;;;;;5112561;27;20039;-82
2023/03/21 08:00:01;;;;;;;13.75;8.88;;;9.50;99.90;;;;;;5081846;28;20040;-81
2023/03/21 08:02:28;;;;;;;11.20;7.53;;;9.50;99.90;;;;;;5113197;28;20157;-81
2023/03/21 08:04:53;;;;;;;11.63;7.65;;;9.50;99.90;;;;;;5095976;28;20071;-81
2023/03/21 08:07:19;;;;;;;12.77;7.57;;;9.50;99.90;;;;;;5128391;27;20039;-82
2023/03/21 08:09:45;;;;;;;11.63;8.10;;;9.50;99.90;;;;;;5096085;28;20039;-81
2023/03/21 08:12:11;;;;;;;12.23;8.48;;;9.50;99.90;;;;;;5094632;28;20036;-82
2023/03/21 08:14:36;;;;;;;11.90;8.15;;;9.50;99.90;;;;;;5094790;28;20117;-82
2023/03/21 08:17:05;;;;;;;12.05;7.88;;;9.50;99.90;;;;;;5095553;28;20639;-81
2023/03/21 08:19:31;;;;;;;11.75;7.75;;;9.50;99.90;;;;;;5097999;28;20040;-81
2023/03/21 08:21:58;;;;;;;10.07;7.53;;;9.60;99.90;;;;;;5098042;28;20584;-82
2023/03/21 08:24:24;;;;;;;9.98;7.45;;;9.60;99.90;;;;;;5094995;28;20054;-81
2023/03/21 08:26:50;;;;;;;11.15;7.15;;;9.50;99.90;;;;;;5093658;28;20110;-82
2023/03/21 08:29:16;;;;;;;10.20;7.32;;;9.60;99.90;;;;;;5093279;28;20062;-81
2023/03/21 08:31:42;;;;;;;9.80;6.80;;;9.60;99.90;;;;;;5078671;28;20039;-82
2023/03/21 08:34:07;;;;;;;9.85;7.53;;;9.50;99.90;;;;;;5128319;27;20040;-81
2023/03/21 08:36:35;;;;;;;9.90;6.70;;;9.50;99.90;;;;;;5096604;28;20040;-81
2023/03/21 08:39:04;;;;;;;9.18;7.10;;;9.60;99.90;;;;;;5115504;28;20063;-81
2023/03/21 08:41:34;;;;;;;11.32;6.93;;;9.60;99.90;;;;;;5100315;28;20035;-81
2023/03/21 08:44:00;;;;;;;7.95;6.25;;;9.60;99.90;;;;;;5116314;28;20031;-81
2023/03/21 08:46:26;;;;;;;8.38;6.05;;;9.60;99.90;;;;;;5104921;28;20036;-81
2023/03/21 08:48:53;;;;;;;9.18;5.97;;;9.60;99.90;;;;;;5096155;28;20056;-81
2023/03/21 08:51:18;;;;;;;7.97;5.90;;;9.60;99.90;;;;;;5096005;28;20047;-81
2023/03/21 08:53:44;;;;;;;7.80;5.78;;;9.60;99.90;;;;;;5094193;28;20122;-82
2023/03/21 08:56:10;;;;;;;7.80;5.70;;;9.60;99.90;;;;;;5094328;28;20081;-81
2023/03/21 08:58:36;;;;;;;8.90;6.53;;;9.50;99.90;;;;;;5096361;28;20040;-82
2023/03/21 09:01:03;;;;;;;10.80;7.72;;;9.60;99.90;;;;;;5111409;28;20039;-81
2023/03/21 09:03:29;;;;;;;12.18;7.72;;;9.60;99.90;;;;;;5105281;28;20393;-81
2023/03/21 09:05:57;;;;;;;13.60;8.02;;;9.60;99.90;;;;;;5093416;28;20557;-81
2023/03/21 09:08:22;;;;;;;12.85;8.95;;;9.60;99.90;;;;;;5093341;28;20051;-81
2023/03/21 09:10:53;;;;;;;12.20;9.05;;;9.60;99.90;;;;;;5093527;28;20037;-81
2023/03/21 09:13:18;;;;;;;14.23;9.35;;;9.60;99.90;;;;;;5093397;28;20040;-81
2023/03/21 09:15:44;;;;;;;16.58;10.30;;;9.60;99.90;;;;;;5076399;28;20456;-81
2023/03/21 09:18:14;;;;;;;14.00;9.95;;;9.60;99.90;;;;;;5127280;27;20040;-81
2023/03/21 09:20:43;;;;;;;16.73;11.63;;;9.60;99.90;;;;;;5110847;28;20399;-81
2023/03/21 09:23:11;;;;;;;14.43;10.45;;;9.60;99.90;;;;;;5093683;28;20118;-80
2023/03/21 09:25:37;;;;;;;16.35;11.77;;;9.60;99.90;;;;;;5109640;28;20040;-80
2023/03/21 09:28:04;;;;;;;17.15;11.45;;;9.60;99.90;;;;;;5109662;28;20127;-80
2023/03/21 09:30:32;;;;;;;18.65;11.38;;;9.60;99.90;;;;;;5093832;28;20097;-80
2023/03/21 09:33:05;;;;;;;19.55;12.48;;;9.60;99.90;;;;;;5127379;27;20043;-80
2023/03/21 09:35:31;;;;;;;17.58;11.95;;;9.60;99.90;;;;;;5093753;28;20040;-80
2023/03/21 09:37:57;;;;;;;17.55;12.85;;;9.60;99.90;;;;;;5100866;28;20487;-80
2023/03/21 09:40:39;;;;;;;19.23;12.88;;;9.60;99.90;;;;;;5087532;28;20071;-80
2023/03/21 09:43:33;;;;;;;19.30;13.30;;;9.60;99.90;;;;;;5092311;28;20079;-80
2023/03/21 09:46:20;;;;;;;23.08;13.85;;;9.60;99.90;;;;;;5092771;28;20093;-81
2023/03/21 09:48:56;;;;;;;20.55;13.82;;;9.60;99.90;;;;;;5129114;27;20382;-81
2023/03/21 09:51:30;;;;;;;20.48;13.07;;;9.60;99.90;;;;;;5113010;28;20047;-82
2023/03/21 09:54:00;;;;;;;18.67;13.68;;;9.60;99.90;;;;;;5106295;28;20042;-81
2023/03/21 09:56:25;;;;;;;21.88;14.00;;;9.60;99.90;;;;;;5092485;28;20028;-81
2023/03/21 09:58:54;;;;;;;21.02;14.30;;;9.60;99.90;;;;;;5108359;28;20040;-81
2023/03/21 10:01:31;;;;;;;20.63;14.02;;;9.60;99.90;;;;;;5092087;28;20427;-81
2023/03/21 10:04:00;;;;;;;22.80;15.00;;;9.60;99.90;;;;;;5127706;27;20047;-81
2023/03/21 10:06:28;;;;;;;21.90;14.63;;;9.60;99.90;;;;;;5106539;28;20040;-80
2023/03/21 10:09:04;;;;;;;22.98;14.88;;;9.60;99.90;;;;;;5093917;28;20040;-80
2023/03/21 10:11:40;;;;;;;24.45;15.45;;;9.60;99.90;;;;;;5093266;28;20048;-80
2023/03/21 10:14:17;;;;;;;24.67;16.63;;;9.60;99.90;;;;;;5091994;28;20044;-81
2023/03/21 10:16:45;;;;;;;23.52;16.85;;;9.60;99.90;;;;;;5092041;28;20039;-81
2023/03/21 10:19:14;;;;;;;25.20;15.73;;;9.60;99.90;;;;;;5091563;28;20041;-80
2023/03/21 10:21:42;;;;;;;26.75;16.52;;;9.60;99.90;;;;;;5108930;28;20036;-81
2023/03/21 10:24:30;;;;;;;24.23;16.00;;;9.60;99.90;;;;;;5126210;27;20060;-81
2023/03/21 10:26:56;;;;;;;22.92;15.15;;;9.60;99.90;;;;;;5091488;28;20123;-80
2023/03/21 10:29:41;;;;;;;23.45;14.88;;;9.70;99.90;;;;;;5093673;28;20040;-80
2023/03/21 10:32:10;;;;;;;19.50;12.80;;;9.70;99.90;;;;;;5128394;27;20075;-80
2023/03/21 10:34:40;;;;;;;20.05;13.93;;;9.80;99.90;;;;;;5103748;28;20039;-80
2023/03/21 10:37:06;;;;;;;25.13;15.05;;;9.80;99.90;;;;;;5103286;28;20044;-80
2023/03/21 10:39:36;;;;;;;21.15;15.13;;;9.80;99.90;;;;;;5095525;28;20117;-81
2023/03/21 10:42:02;;;;;;;23.10;14.75;;;9.90;99.90;;;;;;5094306;28;20043;-81
2023/03/21 10:44:30;;;;;;;24.70;16.55;;;10.00;99.90;;;;;;5110724;28;20471;-80
2023/03/21 10:47:05;;;;;;;26.13;16.98;;;10.10;99.90;;;;;;5093446;28;20051;-81
2023/03/21 10:49:31;;;;;;;22.67;16.10;;;10.10;99.90;;;;;;5127805;27;20547;-81
2023/03/21 10:52:00;;;;;;;21.95;15.30;;;10.20;99.90;;;;;;5098482;28;20113;-81
2023/03/21 10:54:29;;;;;;;23.48;15.85;;;10.20;99.90;;;;;;5100965;28;20070;-81
2023/03/21 10:57:08;;;;;;;24.58;15.05;;;10.30;99.90;;;;;;5106060;28;20035;-81
2023/03/21 10:59:56;;;;;;;22.20;14.15;;;10.40;99.90;;;;;;5097133;28;20069;-81
2023/03/21 11:02:31;;;;;;;21.83;13.27;;;10.40;99.90;;;;;;5097246;28;20507;-81
2023/03/21 11:05:05;;;;;;;20.92;12.95;;;10.50;99.90;;;;;;5099463;28;20028;-81
2023/03/21 11:07:31;;;;;;;17.65;12.95;;;10.60;99.90;;;;;;5133590;27;20047;-80
2023/03/21 11:09:59;;;;;;;20.38;13.15;;;10.70;99.90;;;;;;5101235;28;20040;-82
2023/03/21 11:12:36;;;;;;;19.88;12.43;;;10.80;99.90;;;;;;5099723;28;20071;-81
2023/03/21 11:15:27;;;;;;;18.00;12.50;;;10.90;99.90;;;;;;5135321;27;20043;-80
2023/03/21 11:17:53;;;;;;;18.15;11.65;;;10.90;99.90;;;;;;5063436;28;20176;-81
2023/03/21 11:20:19;;;;;;;20.83;11.23;;;11.00;99.90;;;;;;5098742;28;20506;-81
2023/03/21 11:22:46;;;;;;;19.67;11.73;;;11.00;99.90;;;;;;5132317;27;20052;-81
2023/03/21 11:25:35;;;;;;;17.48;11.70;;;11.10;99.90;;;;;;5100362;28;20036;-81
2023/03/21 11:28:08;;;;;;;18.88;11.45;;;11.30;99.90;;;;;;5101384;28;20119;-81
2023/03/21 11:30:34;;;;;;;18.20;10.35;;;11.40;99.90;;;;;;5099218;28;20036;-81
2023/03/21 11:33:05;;;;;;;16.25;10.95;;;11.40;99.90;;;;;;5085752;28;20469;-81
2023/03/21 11:35:37;;;;;;;16.63;10.95;;;11.40;99.90;;;;;;5129880;27;20395;-82
2023/03/21 11:38:04;;;;;;;14.48;10.57;;;11.40;99.90;;;;;;5133021;27;20036;-82
2023/03/21 11:40:34;;;;;;;15.27;10.52;;;11.40;99.90;;;;;;5099814;28;20068;-81
2023/03/21 11:43:02;;;;;;;17.05;9.18;;;11.40;99.90;;;;;;5102539;28;20257;-81
2023/03/21 11:45:31;;;;;;;16.95;10.77;;;11.40;99.90;;;;;;5102596;28;20123;-81
2023/03/21 11:47:59;;;;;;;14.32;10.10;;;11.50;99.90;;;;;;5133339;27;20069;-81
2023/03/21 11:50:29;;;;;;;17.05;10.32;;;11.50;99.90;;;;;;5114560;28;20237;-81
2023/03/21 11:53:21;;;;;;;17.58;10.50;;;11.50;99.90;;;;;;5143255;27;20028;-81
2023/03/21 11:56:05;;;;;;;16.45;9.35;;;11.50;99.90;;;;;;5121822;28;20039;-81
2023/03/21 11:58:42;;;;;;;15.95;9.68;;;11.60;99.90;;;;;;5154059;27;20043;-81
2023/03/21 12:01:38;;;;;;;16.02;9.85;;;11.60;99.90;;;;;;5102324;28;20043;-81
2023/03/21 12:04:38;;;;;;;13.98;9.00;;;11.60;99.90;;;;;;5073284;28;20111;-81
2023/03/21 12:07:27;;;;;;;13.40;9.55;;;11.40;99.90;;;;;;5117493;28;20043;-81
2023/03/21 12:10:24;;;;;;;14.43;9.32;;;11.40;99.90;;;;;;5105162;28;20474;-81
2023/03/21 12:13:28;;;;;;;15.80;9.50;;;11.40;99.90;;;;;;5097420;28;20614;-81
2023/03/21 12:16:10;;;;;;;14.57;9.38;;;11.40;99.90;;;;;;5056153;28;20045;-81
2023/03/21 12:18:58;;;;;;;14.52;9.05;;;11.40;99.90;;;;;;5094619;28;20048;-81
2023/03/21 12:21:40;;;;;;;14.55;9.02;;;11.30;99.90;;;;;;5100046;28;20126;-81
2023/03/21 12:24:17;;;;;;;15.68;9.10;;;11.40;99.90;;;;;;5102903;28;20036;-81
2023/03/21 12:26:57;;;;;;;16.38;9.52;;;11.40;99.90;;;;;;5112742;28;20071;-80
2023/03/21 12:29:33;;;;;;;16.80;9.07;;;11.40;99.90;;;;;;5103053;28;20096;-81
2023/03/21 12:32:10;;;;;;;14.85;8.80;;;11.30;99.90;;;;;;5101670;28;20440;-80
2023/03/21 12:35:13;;;;;;;13.77;8.70;;;11.30;99.90;;;;;;5104425;28;20040;-80
2023/03/21 12:37:52;;;;;;;13.48;8.60;;;11.20;99.90;;;;;;5088409;28;20095;-80
2023/03/21 12:40:36;;;;;;;13.65;8.60;;;11.20;99.90;;;;;;5100772;28;20039;-81
2023/03/21 12:43:16;;;;;;;14.77;8.50;;;11.20;99.90;;;;;;5140186;27;20175;-81
2023/03/21 12:45:45;;;;;;;14.68;8.55;;;11.10;99.90;;;;;;5096806;28;20048;-80
2023/03/21 12:48:17;;;;;;;13.98;8.43;;;11.20;99.90;;;;;;5099553;28;20389;-81
2023/03/21 12:50:44;;;;;;;13.25;8.13;;;11.20;99.90;;;;;;5100036;28;20236;-81
2023/03/21 12:53:33;;;;;;;16.35;8.73;;;11.20;99.90;;;;;;5098947;28;20029;-81
2023/03/21 12:56:03;;;;;;;13.15;9.20;;;11.30;99.90;;;;;;5097708;28;20538;-81